createdAt,value
2023-03-05T00:01:51.122Z,98366.00
2023-03-05T00:06:52.830Z,98369.13
2023-03-05T00:11:54.533Z,98372.31
2023-03-05T00:16:56.265Z,98372.28
2023-03-05T00:21:57.938Z,98370.31
2023-03-05T00:26:59.610Z,98365.72
2023-03-05T00:32:01.358Z,98360.53
2023-03-05T00:37:03.796Z,98353.56
2023-03-05T00:42:05.717Z,98357.00
2023-03-05T00:47:07.351Z,98351.09
2023-03-05T00:52:08.978Z,98346.97
2023-03-05T00:57:10.586Z,98350.47
2023-03-05T01:02:12.256Z,98344.38
2023-03-05T01:07:14.091Z,98334.06
2023-03-05T01:12:16.055Z,98332.53
2023-03-05T01:17:17.766Z,98331.09
2023-03-05T01:22:19.503Z,98329.94
2023-03-05T01:27:21.159Z,98335.19
2023-03-05T01:32:22.865Z,98330.97
2023-03-05T01:37:24.581Z,98334.16
2023-03-05T01:42:26.245Z,98335.13
2023-03-05T01:47:27.939Z,98329.09
2023-03-05T01:52:33.249Z,98336.25
2023-03-05T01:57:39.678Z,98340.38
2023-03-05T02:02:44.062Z,98335.78
2023-03-05T02:07:46.199Z,98342.16
2023-03-05T02:12:49.904Z,98339.88
2023-03-05T02:17:51.586Z,98340.06
2023-03-05T02:22:53.823Z,98337.44
2023-03-05T02:28:12.166Z,98334.75
2023-03-05T02:33:15.470Z,98347.75
2023-03-05T02:38:19.690Z,98347.31
2023-03-05T02:43:21.407Z,98341.81
2023-03-05T02:48:23.118Z,98331.69
2023-03-05T02:53:26.371Z,98330.03
2023-03-05T02:58:28.001Z,98320.13
2023-03-05T03:03:29.767Z,98319.53
2023-03-05T03:08:31.670Z,98316.25
2023-03-05T03:13:33.388Z,98306.72
2023-03-05T03:18:35.206Z,98304.00
2023-03-05T03:23:36.893Z,98297.94
2023-03-05T03:28:38.521Z,98288.03
2023-03-05T03:33:40.182Z,98293.63
2023-03-05T03:38:42.174Z,98297.47
2023-03-05T03:43:43.845Z,98296.06
2023-03-05T03:48:45.517Z,98296.41
2023-03-05T03:53:47.387Z,98291.00
2023-03-05T03:58:53.082Z,98289.41
2023-03-05T04:03:54.805Z,98290.47
2023-03-05T04:08:57.014Z,98282.75
2023-03-05T04:13:58.670Z,98282.88
2023-03-05T04:19:00.319Z,98279.66
2023-03-05T04:24:02.024Z,98284.19
2023-03-05T04:29:03.954Z,98275.66
2023-03-05T04:34:05.586Z,98263.81
2023-03-05T04:39:07.485Z,98259.97
2023-03-05T04:44:09.444Z,98259.41
2023-03-05T04:49:11.113Z,98266.13
2023-03-05T04:54:12.735Z,98255.59
2023-03-05T04:59:14.437Z,98267.28
2023-03-05T05:04:16.118Z,98266.69
2023-03-05T05:09:17.843Z,98264.28
2023-03-05T05:14:20.031Z,98256.28
2023-03-05T05:19:21.733Z,98260.88
2023-03-05T05:24:23.955Z,98263.56
2023-03-05T05:29:26.197Z,98261.56
2023-03-05T05:34:27.945Z,98267.63
2023-03-05T05:39:29.827Z,98267.63
2023-03-05T05:44:31.642Z,98268.34
2023-03-05T05:49:33.339Z,98269.25
2023-03-05T05:54:35.087Z,98270.75
2023-03-05T05:59:37.581Z,98269.13
2023-03-05T06:04:40.419Z,98264.06
2023-03-05T06:09:42.100Z,98270.72
2023-03-05T06:14:43.845Z,98271.38
2023-03-05T06:19:45.831Z,98270.63
2023-03-05T06:24:47.545Z,98286.06
2023-03-05T06:29:53.344Z,98268.41
2023-03-05T06:34:55.297Z,98272.75
2023-03-05T06:39:57.089Z,98274.06
2023-03-05T06:44:58.871Z,98281.69
2023-03-05T06:50:00.722Z,98275.59
2023-03-05T06:55:03.246Z,98271.94
2023-03-05T07:00:11.802Z,98267.31
2023-03-05T07:05:13.799Z,98272.97
2023-03-05T07:10:15.489Z,98272.59
2023-03-05T07:15:17.261Z,98272.31
2023-03-05T07:20:18.963Z,98278.19
2023-03-05T07:25:21.718Z,98276.75
2023-03-05T07:30:23.501Z,98276.59
2023-03-05T07:35:25.213Z,98271.53
2023-03-05T07:40:27.289Z,98266.53
2023-03-05T07:45:29.276Z,98257.47
2023-03-05T07:50:33.124Z,98249.38
2023-03-05T07:55:35.308Z,98258.94
2023-03-05T08:00:38.823Z,98257.97
2023-03-05T08:05:41.629Z,98245.44
2023-03-05T08:10:43.481Z,98245.91
2023-03-05T08:15:46.239Z,98243.41
2023-03-05T08:20:47.954Z,98243.03
2023-03-05T08:25:49.617Z,98244.09
2023-03-05T08:30:51.550Z,98234.22
2023-03-05T08:35:53.303Z,98230.84
2023-03-05T08:40:55.179Z,98234.13
2023-03-05T08:45:57.809Z,98227.63
2023-03-05T08:51:10.447Z,98219.59
2023-03-05T08:56:13.139Z,98212.34
2023-03-05T09:01:15.330Z,98207.38
2023-03-05T09:06:17.134Z,98202.34
2023-03-05T09:11:19.100Z,98200.09
2023-03-05T09:16:21.199Z,98197.41
2023-03-05T09:21:22.937Z,98192.72
2023-03-05T09:26:24.653Z,98190.66
2023-03-05T09:31:26.449Z,98178.31
2023-03-05T09:36:30.409Z,98176.03
2023-03-05T09:42:20.219Z,98178.41
2023-03-05T09:47:34.076Z,98167.97
2023-03-05T09:52:47.234Z,98162.41
2023-03-05T09:57:54.991Z,98157.25
2023-03-05T10:03:01.098Z,98152.03
2023-03-05T10:08:06.175Z,98143.75
2023-03-05T10:13:32.474Z,98135.94
2023-03-05T10:18:57.494Z,98132.66
2023-03-05T10:24:07.586Z,98109.47
2023-03-05T10:29:24.498Z,98109.78
2023-03-05T10:34:58.458Z,98102.69
2023-03-05T10:40:17.278Z,98089.84
2023-03-05T10:45:28.567Z,98075.69
2023-03-05T10:50:41.722Z,98071.25
2023-03-05T10:55:43.912Z,98061.97
2023-03-05T11:01:04.817Z,98054.72
2023-03-05T11:06:06.659Z,98047.28
2023-03-05T11:11:08.497Z,98030.31
2023-03-05T11:16:27.589Z,98019.19
2023-03-05T11:21:30.754Z,98005.16
2023-03-05T11:26:33.205Z,98000.31
2023-03-05T11:31:35.030Z,97987.16
2023-03-05T11:36:42.205Z,97984.84
2023-03-05T11:41:50.430Z,97966.03
2023-03-05T11:47:01.990Z,97959.91
2023-03-05T11:52:11.795Z,97947.31
2023-03-05T11:57:17.078Z,97940.78
2023-03-05T12:02:24.582Z,97933.25
2023-03-05T12:07:37.555Z,97917.41
2023-03-05T12:12:42.472Z,97915.00
2023-03-05T12:18:07.402Z,97906.84
2023-03-05T12:23:15.085Z,97901.81
2023-03-05T12:28:37.103Z,97893.88
2023-03-05T12:33:40.072Z,97885.13
2023-03-05T12:38:41.815Z,97885.88
2023-03-05T12:43:44.017Z,97870.13
2023-03-05T12:48:46.362Z,97863.47
2023-03-05T12:53:51.270Z,97859.78
2023-03-05T12:58:57.708Z,97850.44
2023-03-05T13:04:14.698Z,97852.53
2023-03-05T13:09:28.579Z,97853.56
2023-03-05T13:14:33.635Z,97855.50
2023-03-05T13:19:36.570Z,97846.41
2023-03-05T13:24:39.178Z,97842.28
2023-03-05T13:29:55.403Z,97835.44
2023-03-05T13:35:00.573Z,97830.28
2023-03-05T13:40:16.731Z,97820.09
2023-03-05T13:45:28.531Z,97820.31
2023-03-05T13:50:41.377Z,97815.47
2023-03-05T13:55:44.376Z,97805.84
2023-03-05T14:00:47.105Z,97806.13
2023-03-05T14:05:52.897Z,97796.69
2023-03-05T14:10:57.658Z,97795.00
2023-03-05T14:16:33.787Z,97792.34
2023-03-05T14:21:47.480Z,97784.22
2023-03-05T14:26:57.884Z,97781.94
2023-03-05T14:32:08.706Z,97772.78
2023-03-05T14:37:34.918Z,97764.94
2023-03-05T14:42:50.406Z,97754.56
2023-03-05T14:47:55.048Z,97755.84
2023-03-05T14:53:01.127Z,97757.75
2023-03-05T14:58:11.939Z,97758.09
2023-03-05T15:03:16.285Z,97745.94
2023-03-05T15:08:27.735Z,97739.84
2023-03-05T15:13:30.769Z,97729.00
2023-03-05T15:18:33.710Z,97725.50
2023-03-05T15:23:38.747Z,97728.44
2023-03-05T15:28:42.078Z,97729.25
2023-03-05T15:33:44.813Z,97726.03
2023-03-05T15:38:49.901Z,97724.75
2023-03-05T15:43:52.500Z,97720.50
2023-03-05T15:48:55.340Z,97727.75
2023-03-05T15:53:58.600Z,97731.06
2023-03-05T15:59:02.019Z,97721.59
2023-03-05T16:04:07.086Z,97727.09
2023-03-05T16:09:10.397Z,97722.19
2023-03-05T16:14:13.711Z,97732.06
2023-03-05T16:19:20.430Z,97726.72
2023-03-05T16:24:23.211Z,97728.13
2023-03-05T16:29:29.826Z,97728.53
2023-03-05T16:34:35.256Z,97723.00
2023-03-05T16:39:38.284Z,97734.81
2023-03-05T16:44:42.510Z,97728.78
2023-03-05T16:49:45.048Z,97724.38
2023-03-05T16:54:48.225Z,97731.41
2023-03-05T16:59:52.105Z,97727.16
2023-03-05T17:04:56.579Z,97733.69
2023-03-05T17:09:59.477Z,97739.28
2023-03-05T17:15:02.232Z,97735.28
2023-03-05T17:20:05.324Z,97747.34
2023-03-05T17:25:08.790Z,97742.25
2023-03-05T17:30:11.893Z,97758.31
2023-03-05T17:35:22.498Z,97759.16
2023-03-05T17:40:26.208Z,97765.78
2023-03-05T17:45:29.171Z,97769.16
2023-03-05T17:50:32.293Z,97768.28
2023-03-05T17:55:37.169Z,97770.34
2023-03-05T18:00:43.040Z,97777.63
2023-03-05T18:05:46.115Z,97766.31
2023-03-05T18:10:48.847Z,97761.03
2023-03-05T18:15:51.902Z,97779.09
2023-03-05T18:20:54.780Z,97777.41
2023-03-05T18:25:57.170Z,97773.31
2023-03-05T18:30:59.944Z,97770.06
2023-03-05T18:36:03.890Z,97762.34
2023-03-05T18:41:07.007Z,97769.47
2023-03-05T18:46:11.172Z,97762.47
2023-03-05T18:51:19.074Z,97765.19
2023-03-05T18:56:23.393Z,97770.34
2023-03-05T19:01:26.651Z,97769.44
2023-03-05T19:06:29.652Z,97761.94
2023-03-05T19:11:32.653Z,97774.22
2023-03-05T19:16:41.161Z,97769.97
2023-03-05T19:21:47.370Z,97777.03
2023-03-05T19:26:55.563Z,97770.31
2023-03-05T19:31:58.155Z,97768.47
2023-03-05T19:37:01.016Z,97766.22
2023-03-05T19:42:04.247Z,97768.72
2023-03-05T19:47:07.543Z,97764.22
2023-03-05T19:52:10.343Z,97763.91
2023-03-05T19:57:15.197Z,97770.81
2023-03-05T20:02:21.032Z,97768.59
2023-03-05T20:07:26.863Z,97769.25
2023-03-05T20:12:28.894Z,97768.06
2023-03-05T20:17:31.434Z,97773.91
2023-03-05T20:22:34.034Z,97777.13
2023-03-05T20:27:36.732Z,97784.31
2023-03-05T20:32:41.828Z,97784.84
2023-03-05T20:37:51.567Z,97774.06
2023-03-05T20:42:53.767Z,97766.25
2023-03-05T20:47:56.478Z,97776.47
2023-03-05T20:52:59.039Z,97781.56
2023-03-05T20:58:03.068Z,97783.63
2023-03-05T21:03:06.467Z,97783.34
2023-03-05T21:08:09.154Z,97781.41
2023-03-05T21:13:11.477Z,97778.22
2023-03-05T21:18:16.278Z,97784.00
2023-03-05T21:23:18.469Z,97774.53
2023-03-05T21:28:21.164Z,97773.03
2023-03-05T21:33:27.527Z,97773.13
2023-03-05T21:38:30.475Z,97770.50
2023-03-05T21:43:32.859Z,97771.50
2023-03-05T21:48:34.937Z,97776.25
2023-03-05T21:53:36.738Z,97771.72
2023-03-05T21:58:38.865Z,97768.16
2023-03-05T22:03:40.680Z,97773.38
2023-03-05T22:08:42.949Z,97770.66
2023-03-05T22:13:44.968Z,97777.91
2023-03-05T22:18:46.624Z,97778.81
2023-03-05T22:23:48.559Z,97778.94
2023-03-05T22:28:50.792Z,97772.03
2023-03-05T22:33:52.969Z,97773.94
2023-03-05T22:38:54.715Z,97770.34
2023-03-05T22:43:56.728Z,97776.59
2023-03-05T22:48:58.392Z,97775.22
2023-03-05T22:54:01.393Z,97775.53
2023-03-05T22:59:03.122Z,97762.78
2023-03-05T23:04:13.563Z,97758.44
2023-03-05T23:09:15.356Z,97754.91
2023-03-05T23:14:17.033Z,97756.38
2023-03-05T23:19:18.778Z,97757.88
2023-03-05T23:24:20.461Z,97758.59
2023-03-05T23:29:23.280Z,97764.13
2023-03-05T23:34:24.975Z,97758.72
2023-03-05T23:39:26.915Z,97754.69
2023-03-05T23:44:28.587Z,97751.19
2023-03-05T23:49:30.231Z,97751.00
2023-03-05T23:54:31.907Z,97761.78
2023-03-05T23:59:34.827Z,97754.22
